sensor_id;sensor_type;location;lat;lon;timestamp;P1;durP1;ratioP1;P2;durP2;ratioP2
23328;SDS011;11836;51.050;3.716;2023-05-07T00:00:33;2.90;;;1.30;;
23328;SDS011;11836;51.050;3.716;2023-05-07T00:02:59;2.55;;;1.40;;
23328;SDS011;11836;51.050;3.716;2023-05-07T00:05:25;2.13;;;1.27;;
23328;SDS011;11836;51.050;3.716;2023-05-07T00:07:51;1.85;;;1.17;;
23328;SDS011;11836;51.050;3.716;2023-05-07T00:10:17;2.92;;;1.60;;
23328;SDS011;11836;51.050;3.716;2023-05-07T00:12:46;3.60;;;1.55;;
23328;SDS011;11836;51.050;3.716;2023-05-07T00:15:12;2.03;;;1.45;;
23328;SDS011;11836;51.050;3.716;2023-05-07T00:17:38;2.05;;;1.30;;
23328;SDS011;11836;51.050;3.716;2023-05-07T00:20:04;3.85;;;1.90;;
23328;SDS011;11836;51.050;3.716;2023-05-07T00:22:30;2.83;;;1.63;;
23328;SDS011;11836;51.050;3.716;2023-05-07T00:24:57;3.33;;;1.80;;
23328;SDS011;11836;51.050;3.716;2023-05-07T00:27:26;2.63;;;1.50;;
23328;SDS011;11836;51.050;3.716;2023-05-07T00:29:51;1.67;;;1.30;;
23328;SDS011;11836;51.050;3.716;2023-05-07T00:32:20;3.55;;;1.40;;
23328;SDS011;11836;51.050;3.716;2023-05-07T00:34:46;3.70;;;1.52;;
23328;SDS011;11836;51.050;3.716;2023-05-07T00:37:11;2.67;;;1.35;;
23328;SDS011;11836;51.050;3.716;2023-05-07T00:39:37;3.00;;;1.75;;
23328;SDS011;11836;51.050;3.716;2023-05-07T00:42:03;3.78;;;1.60;;
23328;SDS011;11836;51.050;3.716;2023-05-07T00:44:36;1.92;;;1.30;;
23328;SDS011;11836;51.050;3.716;2023-05-07T00:47:02;2.72;;;1.30;;
23328;SDS011;11836;51.050;3.716;2023-05-07T00:49:47;4.45;;;1.50;;
23328;SDS011;11836;51.050;3.716;2023-05-07T00:52:14;2.42;;;1.40;;
23328;SDS011;11836;51.050;3.716;2023-05-07T00:54:46;3.03;;;1.48;;
23328;SDS011;11836;51.050;3.716;2023-05-07T00:57:13;1.33;;;1.15;;
23328;SDS011;11836;51.050;3.716;2023-05-07T00:59:39;3.35;;;1.67;;
23328;SDS011;11836;51.050;3.716;2023-05-07T01:02:06;3.22;;;1.50;;
23328;SDS011;11836;51.050;3.716;2023-05-07T01:04:33;4.15;;;1.40;;
23328;SDS011;11836;51.050;3.716;2023-05-07T01:07:00;1.85;;;1.05;;
23328;SDS011;11836;51.050;3.716;2023-05-07T01:09:27;1.92;;;1.25;;
23328;SDS011;11836;51.050;3.716;2023-05-07T01:11:53;4.60;;;1.65;;
23328;SDS011;11836;51.050;3.716;2023-05-07T01:14:20;4.55;;;1.55;;
23328;SDS011;11836;51.050;3.716;2023-05-07T01:16:46;2.10;;;1.38;;
23328;SDS011;11836;51.050;3.716;2023-05-07T01:19:21;4.13;;;1.30;;
23328;SDS011;11836;51.050;3.716;2023-05-07T01:21:50;2.35;;;1.15;;
23328;SDS011;11836;51.050;3.716;2023-05-07T01:24:22;3.25;;;1.50;;
23328;SDS011;11836;51.050;3.716;2023-05-07T01:26:48;2.55;;;1.63;;
23328;SDS011;11836;51.050;3.716;2023-05-07T01:29:14;2.35;;;1.35;;
23328;SDS011;11836;51.050;3.716;2023-05-07T01:31:43;1.83;;;1.33;;
23328;SDS011;11836;51.050;3.716;2023-05-07T01:34:09;3.60;;;1.60;;
23328;SDS011;11836;51.050;3.716;2023-05-07T01:36:46;3.10;;;1.25;;
23328;SDS011;11836;51.050;3.716;2023-05-07T01:39:13;2.97;;;1.33;;
23328;SDS011;11836;51.050;3.716;2023-05-07T01:41:45;2.13;;;1.30;;
23328;SDS011;11836;51.050;3.716;2023-05-07T01:44:12;3.38;;;1.48;;
23328;SDS011;11836;51.050;3.716;2023-05-07T01:46:39;2.20;;;1.30;;
23328;SDS011;11836;51.050;3.716;2023-05-07T01:49:07;2.72;;;1.42;;
23328;SDS011;11836;51.050;3.716;2023-05-07T01:51:44;3.78;;;1.48;;
23328;SDS011;11836;51.050;3.716;2023-05-07T01:56:36;2.00;;;1.10;;
23328;SDS011;11836;51.050;3.716;2023-05-07T01:59:02;3.65;;;1.50;;
23328;SDS011;11836;51.050;3.716;2023-05-07T02:01:28;3.10;;;0.95;;
23328;SDS011;11836;51.050;3.716;2023-05-07T02:03:57;1.80;;;1.25;;
23328;SDS011;11836;51.050;3.716;2023-05-07T02:06:22;2.13;;;1.20;;
23328;SDS011;11836;51.050;3.716;2023-05-07T02:08:48;2.53;;;1.60;;
23328;SDS011;11836;51.050;3.716;2023-05-07T02:11:15;3.25;;;1.10;;
23328;SDS011;11836;51.050;3.716;2023-05-07T02:13:45;2.60;;;1.40;;
23328;SDS011;11836;51.050;3.716;2023-05-07T02:16:12;3.67;;;1.70;;
23328;SDS011;11836;51.050;3.716;2023-05-07T02:18:40;1.73;;;1.27;;
23328;SDS011;11836;51.050;3.716;2023-05-07T02:21:08;2.15;;;1.23;;
23328;SDS011;11836;51.050;3.716;2023-05-07T02:23:34;2.85;;;1.20;;
23328;SDS011;11836;51.050;3.716;2023-05-07T02:26:00;2.40;;;1.20;;
23328;SDS011;11836;51.050;3.716;2023-05-07T02:28:29;2.80;;;1.65;;
23328;SDS011;11836;51.050;3.716;2023-05-07T02:30:57;3.83;;;1.40;;
23328;SDS011;11836;51.050;3.716;2023-05-07T02:33:25;2.45;;;1.17;;
23328;SDS011;11836;51.050;3.716;2023-05-07T02:36:07;2.05;;;1.13;;
23328;SDS011;11836;51.050;3.716;2023-05-07T02:38:34;2.35;;;1.10;;
23328;SDS011;11836;51.050;3.716;2023-05-07T02:41:00;2.42;;;1.30;;
23328;SDS011;11836;51.050;3.716;2023-05-07T02:43:25;2.45;;;1.17;;
23328;SDS011;11836;51.050;3.716;2023-05-07T02:48:46;3.60;;;1.27;;
23328;SDS011;11836;51.050;3.716;2023-05-07T02:51:12;2.80;;;1.30;;
23328;SDS011;11836;51.050;3.716;2023-05-07T02:53:39;2.67;;;1.40;;
23328;SDS011;11836;51.050;3.716;2023-05-07T02:56:05;2.13;;;1.23;;
23328;SDS011;11836;51.050;3.716;2023-05-07T02:58:32;2.78;;;1.25;;
23328;SDS011;11836;51.050;3.716;2023-05-07T03:00:57;1.58;;;1.23;;
23328;SDS011;11836;51.050;3.716;2023-05-07T03:03:24;3.10;;;1.45;;
23328;SDS011;11836;51.050;3.716;2023-05-07T03:05:49;1.98;;;1.10;;
23328;SDS011;11836;51.050;3.716;2023-05-07T03:08:19;2.03;;;1.40;;
23328;SDS011;11836;51.050;3.716;2023-05-07T03:10:51;1.85;;;0.95;;
23328;SDS011;11836;51.050;3.716;2023-05-07T03:13:17;2.17;;;1.25;;
23328;SDS011;11836;51.050;3.716;2023-05-07T03:15:47;1.80;;;1.23;;
23328;SDS011;11836;51.050;3.716;2023-05-07T03:18:13;2.42;;;1.38;;
23328;SDS011;11836;51.050;3.716;2023-05-07T03:20:38;2.70;;;1.10;;
23328;SDS011;11836;51.050;3.716;2023-05-07T03:23:07;3.65;;;1.08;;
23328;SDS011;11836;51.050;3.716;2023-05-07T03:25:39;2.10;;;1.33;;
23328;SDS011;11836;51.050;3.716;2023-05-07T03:28:05;1.80;;;1.20;;
23328;SDS011;11836;51.050;3.716;2023-05-07T03:30:31;2.55;;;1.55;;
23328;SDS011;11836;51.050;3.716;2023-05-07T03:33:02;2.60;;;1.10;;
23328;SDS011;11836;51.050;3.716;2023-05-07T03:35:29;1.15;;;0.90;;
23328;SDS011;11836;51.050;3.716;2023-05-07T03:37:55;3.25;;;1.23;;
23328;SDS011;11836;51.050;3.716;2023-05-07T03:40:21;1.85;;;1.35;;
23328;SDS011;11836;51.050;3.716;2023-05-07T03:42:47;2.15;;;1.25;;
23328;SDS011;11836;51.050;3.716;2023-05-07T03:45:13;3.15;;;1.30;;
23328;SDS011;11836;51.050;3.716;2023-05-07T03:47:38;2.28;;;1.20;;
23328;SDS011;11836;51.050;3.716;2023-05-07T03:50:04;2.00;;;1.15;;
23328;SDS011;11836;51.050;3.716;2023-05-07T03:52:30;2.35;;;1.23;;
23328;SDS011;11836;51.050;3.716;2023-05-07T03:54:57;1.85;;;0.90;;
23328;SDS011;11836;51.050;3.716;2023-05-07T03:57:25;3.17;;;1.02;;
23328;SDS011;11836;51.050;3.716;2023-05-07T03:59:52;2.08;;;1.08;;
23328;SDS011;11836;51.050;3.716;2023-05-07T04:02:19;2.35;;;1.30;;
23328;SDS011;11836;51.050;3.716;2023-05-07T04:04:45;2.38;;;1.30;;
23328;SDS011;11836;51.050;3.716;2023-05-07T04:07:10;1.77;;;1.15;;
23328;SDS011;11836;51.050;3.716;2023-05-07T04:09:37;1.75;;;1.05;;
23328;SDS011;11836;51.050;3.716;2023-05-07T04:12:03;2.47;;;1.48;;
23328;SDS011;11836;51.050;3.716;2023-05-07T04:14:29;2.47;;;1.27;;
23328;SDS011;11836;51.050;3.716;2023-05-07T04:16:57;2.25;;;1.60;;
23328;SDS011;11836;51.050;3.716;2023-05-07T04:19:24;2.60;;;1.40;;
23328;SDS011;11836;51.050;3.716;2023-05-07T04:21:50;3.28;;;1.52;;
23328;SDS011;11836;51.050;3.716;2023-05-07T04:24:17;2.03;;;1.17;;
23328;SDS011;11836;51.050;3.716;2023-05-07T04:26:43;2.15;;;1.38;;
23328;SDS011;11836;51.050;3.716;2023-05-07T04:29:12;1.80;;;1.25;;
23328;SDS011;11836;51.050;3.716;2023-05-07T04:31:38;2.83;;;1.30;;
23328;SDS011;11836;51.050;3.716;2023-05-07T04:34:04;2.58;;;1.30;;
23328;SDS011;11836;51.050;3.716;2023-05-07T04:36:30;1.67;;;1.27;;
23328;SDS011;11836;51.050;3.716;2023-05-07T04:38:58;2.20;;;1.05;;
23328;SDS011;11836;51.050;3.716;2023-05-07T04:41:26;2.42;;;1.20;;
23328;SDS011;11836;51.050;3.716;2023-05-07T04:43:52;2.03;;;1.38;;
23328;SDS011;11836;51.050;3.716;2023-05-07T04:46:21;2.83;;;1.20;;
23328;SDS011;11836;51.050;3.716;2023-05-07T04:48:49;1.67;;;1.02;;
23328;SDS011;11836;51.050;3.716;2023-05-07T04:51:18;2.60;;;1.50;;
23328;SDS011;11836;51.050;3.716;2023-05-07T04:53:44;1.45;;;1.05;;
23328;SDS011;11836;51.050;3.716;2023-05-07T04:56:10;1.02;;;0.90;;
23328;SDS011;11836;51.050;3.716;2023-05-07T04:58:36;1.95;;;1.17;;
23328;SDS011;11836;51.050;3.716;2023-05-07T05:01:05;3.08;;;1.50;;
23328;SDS011;11836;51.050;3.716;2023-05-07T05:03:36;4.75;;;1.65;;
23328;SDS011;11836;51.050;3.716;2023-05-07T05:06:01;1.17;;;1.00;;
23328;SDS011;11836;51.050;3.716;2023-05-07T05:08:27;1.98;;;1.30;;
23328;SDS011;11836;51.050;3.716;2023-05-07T05:10:54;2.05;;;1.08;;
23328;SDS011;11836;51.050;3.716;2023-05-07T05:13:20;2.55;;;1.35;;
23328;SDS011;11836;51.050;3.716;2023-05-07T05:15:46;2.30;;;1.20;;
23328;SDS011;11836;51.050;3.716;2023-05-07T05:18:12;1.60;;;0.98;;
23328;SDS011;11836;51.050;3.716;2023-05-07T05:20:40;1.95;;;1.40;;
23328;SDS011;11836;51.050;3.716;2023-05-07T05:23:07;1.73;;;0.85;;
23328;SDS011;11836;51.050;3.716;2023-05-07T05:25:36;2.40;;;1.40;;
23328;SDS011;11836;51.050;3.716;2023-05-07T05:28:02;1.43;;;1.10;;
23328;SDS011;11836;51.050;3.716;2023-05-07T05:30:31;2.60;;;1.35;;
23328;SDS011;11836;51.050;3.716;2023-05-07T05:32:56;2.70;;;1.50;;
23328;SDS011;11836;51.050;3.716;2023-05-07T05:35:22;1.25;;;1.13;;
23328;SDS011;11836;51.050;3.716;2023-05-07T05:37:49;3.63;;;1.42;;
23328;SDS011;11836;51.050;3.716;2023-05-07T05:40:15;1.65;;;1.10;;
23328;SDS011;11836;51.050;3.716;2023-05-07T05:42:40;1.98;;;1.30;;
23328;SDS011;11836;51.050;3.716;2023-05-07T05:45:07;2.83;;;1.30;;
23328;SDS011;11836;51.050;3.716;2023-05-07T05:47:35;1.63;;;1.13;;
23328;SDS011;11836;51.050;3.716;2023-05-07T05:50:04;3.05;;;1.38;;
23328;SDS011;11836;51.050;3.716;2023-05-07T05:52:32;2.50;;;1.27;;
23328;SDS011;11836;51.050;3.716;2023-05-07T05:54:58;1.95;;;1.40;;
23328;SDS011;11836;51.050;3.716;2023-05-07T05:57:25;1.83;;;1.10;;
23328;SDS011;11836;51.050;3.716;2023-05-07T05:59:53;2.35;;;1.35;;
23328;SDS011;11836;51.050;3.716;2023-05-07T06:02:19;2.10;;;1.27;;
23328;SDS011;11836;51.050;3.716;2023-05-07T06:04:45;2.40;;;0.98;;
23328;SDS011;11836;51.050;3.716;2023-05-07T06:07:11;1.88;;;1.40;;
23328;SDS011;11836;51.050;3.716;2023-05-07T06:09:40;1.63;;;1.05;;
23328;SDS011;11836;51.050;3.716;2023-05-07T06:12:09;2.55;;;1.10;;
23328;SDS011;11836;51.050;3.716;2023-05-07T06:14:42;2.85;;;1.40;;
23328;SDS011;11836;51.050;3.716;2023-05-07T06:17:09;2.10;;;1.25;;
23328;SDS011;11836;51.050;3.716;2023-05-07T06:19:35;3.75;;;1.35;;
23328;SDS011;11836;51.050;3.716;2023-05-07T06:22:04;2.08;;;1.20;;
23328;SDS011;11836;51.050;3.716;2023-05-07T06:24:33;2.90;;;1.13;;
23328;SDS011;11836;51.050;3.716;2023-05-07T06:27:17;1.95;;;1.15;;
23328;SDS011;11836;51.050;3.716;2023-05-07T06:29:43;1.42;;;1.13;;
23328;SDS011;11836;51.050;3.716;2023-05-07T06:32:12;1.75;;;1.35;;
23328;SDS011;11836;51.050;3.716;2023-05-07T06:34:42;2.15;;;1.10;;
23328;SDS011;11836;51.050;3.716;2023-05-07T06:37:08;2.83;;;1.02;;
23328;SDS011;11836;51.050;3.716;2023-05-07T06:39:33;6.68;;;2.05;;
23328;SDS011;11836;51.050;3.716;2023-05-07T06:42:00;2.00;;;1.20;;
23328;SDS011;11836;51.050;3.716;2023-05-07T06:44:33;2.45;;;1.10;;
23328;SDS011;11836;51.050;3.716;2023-05-07T06:46:59;2.88;;;1.52;;
23328;SDS011;11836;51.050;3.716;2023-05-07T06:49:28;3.28;;;2.08;;
23328;SDS011;11836;51.050;3.716;2023-05-07T06:51:56;3.22;;;1.65;;
23328;SDS011;11836;51.050;3.716;2023-05-07T06:54:25;2.60;;;1.80;;
23328;SDS011;11836;51.050;3.716;2023-05-07T06:56:50;2.70;;;1.50;;
23328;SDS011;11836;51.050;3.716;2023-05-07T06:59:16;3.08;;;1.50;;
23328;SDS011;11836;51.050;3.716;2023-05-07T07:01:42;2.15;;;1.48;;
23328;SDS011;11836;51.050;3.716;2023-05-07T07:04:08;2.25;;;1.63;;
23328;SDS011;11836;51.050;3.716;2023-05-07T07:06:33;2.08;;;1.40;;
23328;SDS011;11836;51.050;3.716;2023-05-07T07:09:02;3.67;;;1.40;;
23328;SDS011;11836;51.050;3.716;2023-05-07T07:11:30;2.78;;;1.77;;
23328;SDS011;11836;51.050;3.716;2023-05-07T07:14:00;3.10;;;1.30;;
23328;SDS011;11836;51.050;3.716;2023-05-07T07:16:26;2.65;;;1.30;;
23328;SDS011;11836;51.050;3.716;2023-05-07T07:18:51;1.73;;;1.40;;
23328;SDS011;11836;51.050;3.716;2023-05-07T07:21:17;1.88;;;1.20;;
23328;SDS011;11836;51.050;3.716;2023-05-07T07:23:43;2.88;;;1.50;;
23328;SDS011;11836;51.050;3.716;2023-05-07T07:26:09;2.58;;;1.20;;
23328;SDS011;11836;51.050;3.716;2023-05-07T07:28:44;1.30;;;1.02;;
23328;SDS011;11836;51.050;3.716;2023-05-07T07:31:11;2.33;;;1.30;;
23328;SDS011;11836;51.050;3.716;2023-05-07T07:33:40;1.88;;;0.82;;
23328;SDS011;11836;51.050;3.716;2023-05-07T07:36:07;2.70;;;1.13;;
23328;SDS011;11836;51.050;3.716;2023-05-07T07:38:34;1.30;;;0.90;;
23328;SDS011;11836;51.050;3.716;2023-05-07T07:41:00;6.13;;;2.03;;
23328;SDS011;11836;51.050;3.716;2023-05-07T07:43:31;2.40;;;0.90;;
23328;SDS011;11836;51.050;3.716;2023-05-07T07:46:00;1.90;;;1.35;;
23328;SDS011;11836;51.050;3.716;2023-05-07T07:48:31;1.70;;;1.10;;
23328;SDS011;11836;51.050;3.716;2023-05-07T07:50:58;2.95;;;1.40;;
23328;SDS011;11836;51.050;3.716;2023-05-07T07:53:24;2.92;;;1.45;;
23328;SDS011;11836;51.050;3.716;2023-05-07T07:55:53;2.63;;;1.23;;
23328;SDS011;11836;51.050;3.716;2023-05-07T07:58:18;4.32;;;1.25;;
23328;SDS011;11836;51.050;3.716;2023-05-07T08:00:44;1.95;;;1.00;;
23328;SDS011;11836;51.050;3.716;2023-05-07T08:03:19;5.68;;;1.35;;
23328;SDS011;11836;51.050;3.716;2023-05-07T08:05:45;3.80;;;1.27;;
23328;SDS011;11836;51.050;3.716;2023-05-07T08:08:11;3.80;;;1.17;;
23328;SDS011;11836;51.050;3.716;2023-05-07T08:10:40;2.78;;;1.20;;
23328;SDS011;11836;51.050;3.716;2023-05-07T08:13:14;3.42;;;1.30;;
23328;SDS011;11836;51.050;3.716;2023-05-07T08:15:40;3.88;;;1.20;;
23328;SDS011;11836;51.050;3.716;2023-05-07T08:18:06;1.83;;;0.90;;
23328;SDS011;11836;51.050;3.716;2023-05-07T08:20:32;4.80;;;1.10;;
23328;SDS011;11836;51.050;3.716;2023-05-07T08:23:05;4.88;;;1.45;;
23328;SDS011;11836;51.050;3.716;2023-05-07T08:25:38;4.90;;;1.58;;
23328;SDS011;11836;51.050;3.716;2023-05-07T08:28:05;3.22;;;1.02;;
23328;SDS011;11836;51.050;3.716;2023-05-07T08:30:30;4.45;;;1.15;;
23328;SDS011;11836;51.050;3.716;2023-05-07T08:32:56;3.97;;;1.02;;
23328;SDS011;11836;51.050;3.716;2023-05-07T08:35:22;2.70;;;1.10;;
23328;SDS011;11836;51.050;3.716;2023-05-07T08:37:48;2.13;;;1.10;;
23328;SDS011;11836;51.050;3.716;2023-05-07T08:40:13;1.80;;;1.27;;
23328;SDS011;11836;51.050;3.716;2023-05-07T08:42:42;3.05;;;1.40;;
23328;SDS011;11836;51.050;3.716;2023-05-07T08:45:14;2.95;;;1.40;;
23328;SDS011;11836;51.050;3.716;2023-05-07T08:47:44;4.45;;;1.10;;
23328;SDS011;11836;51.050;3.716;2023-05-07T08:50:13;2.35;;;1.08;;
23328;SDS011;11836;51.050;3.716;2023-05-07T08:52:40;2.60;;;1.40;;
23328;SDS011;11836;51.050;3.716;2023-05-07T08:55:07;1.75;;;0.80;;
23328;SDS011;11836;51.050;3.716;2023-05-07T08:57:36;1.33;;;0.82;;
23328;SDS011;11836;51.050;3.716;2023-05-07T09:00:02;1.58;;;0.90;;
23328;SDS011;11836;51.050;3.716;2023-05-07T09:02:29;1.60;;;1.00;;
23328;SDS011;11836;51.050;3.716;2023-05-07T09:04:58;3.03;;;1.25;;
23328;SDS011;11836;51.050;3.716;2023-05-07T09:07:24;1.70;;;1.05;;
23328;SDS011;11836;51.050;3.716;2023-05-07T09:09:51;2.45;;;1.20;;
23328;SDS011;11836;51.050;3.716;2023-05-07T09:12:20;1.25;;;0.80;;
23328;SDS011;11836;51.050;3.716;2023-05-07T09:14:46;2.72;;;0.90;;
23328;SDS011;11836;51.050;3.716;2023-05-07T09:17:17;2.55;;;1.00;;
23328;SDS011;11836;51.050;3.716;2023-05-07T09:19:46;3.22;;;1.08;;
23328;SDS011;11836;51.050;3.716;2023-05-07T09:22:18;1.80;;;1.00;;
23328;SDS011;11836;51.050;3.716;2023-05-07T09:24:47;2.28;;;1.23;;
23328;SDS011;11836;51.050;3.716;2023-05-07T09:27:14;2.70;;;1.20;;
23328;SDS011;11836;51.050;3.716;2023-05-07T09:29:44;1.65;;;1.10;;
23328;SDS011;11836;51.050;3.716;2023-05-07T09:32:10;2.17;;;1.00;;
23328;SDS011;11836;51.050;3.716;2023-05-07T09:34:36;3.72;;;1.27;;
23328;SDS011;11836;51.050;3.716;2023-05-07T09:37:10;1.75;;;0.90;;
23328;SDS011;11836;51.050;3.716;2023-05-07T09:39:49;1.40;;;1.00;;
23328;SDS011;11836;51.050;3.716;2023-05-07T09:42:16;1.23;;;0.90;;
23328;SDS011;11836;51.050;3.716;2023-05-07T09:44:48;1.42;;;1.00;;
23328;SDS011;11836;51.050;3.716;2023-05-07T09:47:16;1.80;;;0.90;;
23328;SDS011;11836;51.050;3.716;2023-05-07T09:49:45;1.95;;;1.15;;
23328;SDS011;11836;51.050;3.716;2023-05-07T09:52:13;1.63;;;0.65;;
23328;SDS011;11836;51.050;3.716;2023-05-07T09:54:44;1.13;;;0.88;;
23328;SDS011;11836;51.050;3.716;2023-05-07T09:57:12;1.65;;;1.00;;
23328;SDS011;11836;51.050;3.716;2023-05-07T09:59:39;1.52;;;1.10;;
23328;SDS011;11836;51.050;3.716;2023-05-07T10:02:08;1.90;;;0.90;;
23328;SDS011;11836;51.050;3.716;2023-05-07T10:04:35;1.40;;;0.80;;
23328;SDS011;11836;51.050;3.716;2023-05-07T10:07:05;1.38;;;0.95;;
23328;SDS011;11836;51.050;3.716;2023-05-07T10:09:32;1.55;;;0.70;;
23328;SDS011;11836;51.050;3.716;2023-05-07T10:11:58;0.98;;;0.75;;
23328;SDS011;11836;51.050;3.716;2023-05-07T10:14:24;0.95;;;0.52;;
23328;SDS011;11836;51.050;3.716;2023-05-07T10:16:53;1.00;;;0.80;;
23328;SDS011;11836;51.050;3.716;2023-05-07T10:19:19;1.30;;;0.75;;
23328;SDS011;11836;51.050;3.716;2023-05-07T10:21:54;2.55;;;1.00;;
23328;SDS011;11836;51.050;3.716;2023-05-07T10:24:25;2.42;;;0.90;;
23328;SDS011;11836;51.050;3.716;2023-05-07T10:26:55;3.70;;;0.75;;
23328;SDS011;11836;51.050;3.716;2023-05-07T10:34:44;1.90;;;0.90;;
23328;SDS011;11836;51.050;3.716;2023-05-07T10:39:38;4.03;;;1.00;;
23328;SDS011;11836;51.050;3.716;2023-05-07T10:42:07;2.08;;;0.90;;
23328;SDS011;11836;51.050;3.716;2023-05-07T10:44:37;2.10;;;0.93;;
23328;SDS011;11836;51.050;3.716;2023-05-07T10:47:07;2.67;;;0.70;;
23328;SDS011;11836;51.050;3.716;2023-05-07T10:52:15;4.40;;;0.90;;
23328;SDS011;11836;51.050;3.716;2023-05-07T10:55:18;2.25;;;1.13;;
23328;SDS011;11836;51.050;3.716;2023-05-07T10:58:19;1.90;;;0.93;;
23328;SDS011;11836;51.050;3.716;2023-05-07T11:00:48;1.88;;;0.80;;
23328;SDS011;11836;51.050;3.716;2023-05-07T11:03:18;2.20;;;0.85;;
23328;SDS011;11836;51.050;3.716;2023-05-07T11:05:44;3.03;;;0.95;;
23328;SDS011;11836;51.050;3.716;2023-05-07T11:08:10;1.73;;;0.88;;
23328;SDS011;11836;51.050;3.716;2023-05-07T11:10:53;3.08;;;1.08;;
23328;SDS011;11836;51.050;3.716;2023-05-07T11:19:08;0.60;;;0.60;;
23328;SDS011;11836;51.050;3.716;2023-05-07T11:23:59;2.85;;;0.95;;
23328;SDS011;11836;51.050;3.716;2023-05-07T11:26:27;0.82;;;0.73;;
23328;SDS011;11836;51.050;3.716;2023-05-07T11:29:00;1.05;;;0.82;;
23328;SDS011;11836;51.050;3.716;2023-05-07T11:31:28;1.63;;;0.80;;
23328;SDS011;11836;51.050;3.716;2023-05-07T11:33:55;3.42;;;0.70;;
23328;SDS011;11836;51.050;3.716;2023-05-07T11:36:22;1.75;;;0.70;;
23328;SDS011;11836;51.050;3.716;2023-05-07T11:38:50;1.60;;;1.10;;
23328;SDS011;11836;51.050;3.716;2023-05-07T11:41:17;1.25;;;0.77;;
23328;SDS011;11836;51.050;3.716;2023-05-07T11:43:54;1.60;;;0.85;;
23328;SDS011;11836;51.050;3.716;2023-05-07T11:46:21;3.20;;;0.90;;
23328;SDS011;11836;51.050;3.716;2023-05-07T11:48:47;1.83;;;0.70;;
23328;SDS011;11836;51.050;3.716;2023-05-07T11:51:18;1.35;;;0.95;;
23328;SDS011;11836;51.050;3.716;2023-05-07T11:53:50;1.02;;;0.93;;
23328;SDS011;11836;51.050;3.716;2023-05-07T11:56:17;4.07;;;1.30;;
23328;SDS011;11836;51.050;3.716;2023-05-07T11:58:44;3.10;;;1.05;;
23328;SDS011;11836;51.050;3.716;2023-05-07T12:01:15;1.85;;;0.90;;
23328;SDS011;11836;51.050;3.716;2023-05-07T12:03:45;1.98;;;1.10;;
23328;SDS011;11836;51.050;3.716;2023-05-07T12:06:14;1.92;;;1.05;;
23328;SDS011;11836;51.050;3.716;2023-05-07T12:08:41;2.25;;;1.05;;
23328;SDS011;11836;51.050;3.716;2023-05-07T12:11:08;1.27;;;0.63;;
23328;SDS011;11836;51.050;3.716;2023-05-07T12:13:40;1.55;;;0.73;;
23328;SDS011;11836;51.050;3.716;2023-05-07T12:16:09;1.73;;;1.00;;
23328;SDS011;11836;51.050;3.716;2023-05-07T12:18:36;1.30;;;0.82;;
23328;SDS011;11836;51.050;3.716;2023-05-07T12:21:05;1.05;;;0.80;;
23328;SDS011;11836;51.050;3.716;2023-05-07T12:23:36;3.08;;;1.10;;
23328;SDS011;11836;51.050;3.716;2023-05-07T12:26:02;2.60;;;0.80;;
23328;SDS011;11836;51.050;3.716;2023-05-07T12:28:28;1.48;;;0.90;;
23328;SDS011;11836;51.050;3.716;2023-05-07T12:30:55;2.03;;;0.93;;
23328;SDS011;11836;51.050;3.716;2023-05-07T12:33:31;2.05;;;0.80;;
23328;SDS011;11836;51.050;3.716;2023-05-07T12:35:58;4.70;;;0.98;;
23328;SDS011;11836;51.050;3.716;2023-05-07T12:38:35;1.58;;;0.73;;
23328;SDS011;11836;51.050;3.716;2023-05-07T12:41:02;1.70;;;0.85;;
23328;SDS011;11836;51.050;3.716;2023-05-07T12:43:30;2.03;;;1.10;;
23328;SDS011;11836;51.050;3.716;2023-05-07T12:46:02;2.95;;;0.80;;
23328;SDS011;11836;51.050;3.716;2023-05-07T12:48:30;2.45;;;0.90;;
23328;SDS011;11836;51.050;3.716;2023-05-07T12:51:02;1.27;;;0.70;;
23328;SDS011;11836;51.050;3.716;2023-05-07T12:53:33;1.40;;;0.82;;
23328;SDS011;11836;51.050;3.716;2023-05-07T12:56:05;1.02;;;0.60;;
23328;SDS011;11836;51.050;3.716;2023-05-07T12:58:34;1.60;;;0.90;;
23328;SDS011;11836;51.050;3.716;2023-05-07T13:01:09;1.00;;;0.88;;
23328;SDS011;11836;51.050;3.716;2023-05-07T13:03:47;1.95;;;0.70;;
23328;SDS011;11836;51.050;3.716;2023-05-07T13:06:17;2.10;;;0.75;;
23328;SDS011;11836;51.050;3.716;2023-05-07T13:08:48;2.75;;;0.82;;
23328;SDS011;11836;51.050;3.716;2023-05-07T13:11:16;1.20;;;0.80;;
23328;SDS011;11836;51.050;3.716;2023-05-07T13:13:56;2.00;;;1.10;;
23328;SDS011;11836;51.050;3.716;2023-05-07T13:16:25;0.90;;;0.80;;
23328;SDS011;11836;51.050;3.716;2023-05-07T13:18:58;2.58;;;0.60;;
23328;SDS011;11836;51.050;3.716;2023-05-07T13:21:24;1.27;;;0.90;;
23328;SDS011;11836;51.050;3.716;2023-05-07T13:24:01;0.65;;;0.52;;
23328;SDS011;11836;51.050;3.716;2023-05-07T13:26:30;1.50;;;0.80;;
23328;SDS011;11836;51.050;3.716;2023-05-07T13:28:56;1.25;;;0.70;;
23328;SDS011;11836;51.050;3.716;2023-05-07T13:31:34;1.45;;;0.77;;
23328;SDS011;11836;51.050;3.716;2023-05-07T13:34:00;0.82;;;0.70;;
23328;SDS011;11836;51.050;3.716;2023-05-07T13:36:29;0.55;;;0.50;;
23328;SDS011;11836;51.050;3.716;2023-05-07T13:39:12;1.55;;;0.77;;
23328;SDS011;11836;51.050;3.716;2023-05-07T13:41:47;1.30;;;0.68;;
23328;SDS011;11836;51.050;3.716;2023-05-07T13:44:17;1.10;;;0.70;;
23328;SDS011;11836;51.050;3.716;2023-05-07T13:46:46;2.13;;;0.60;;
23328;SDS011;11836;51.050;3.716;2023-05-07T13:49:15;1.38;;;0.60;;
23328;SDS011;11836;51.050;3.716;2023-05-07T13:52:05;1.52;;;0.80;;
23328;SDS011;11836;51.050;3.716;2023-05-07T13:54:33;1.48;;;1.17;;
23328;SDS011;11836;51.050;3.716;2023-05-07T13:56:59;0.57;;;0.57;;
23328;SDS011;11836;51.050;3.716;2023-05-07T13:59:25;0.82;;;0.50;;
23328;SDS011;11836;51.050;3.716;2023-05-07T14:01:51;1.55;;;0.70;;
23328;SDS011;11836;51.050;3.716;2023-05-07T14:04:17;1.83;;;0.60;;
23328;SDS011;11836;51.050;3.716;2023-05-07T14:06:42;1.90;;;0.90;;
23328;SDS011;11836;51.050;3.716;2023-05-07T14:09:14;0.90;;;0.80;;
23328;SDS011;11836;51.050;3.716;2023-05-07T14:11:52;1.45;;;0.90;;
23328;SDS011;11836;51.050;3.716;2023-05-07T14:14:20;0.68;;;0.68;;
23328;SDS011;11836;51.050;3.716;2023-05-07T14:16:48;1.23;;;0.70;;
23328;SDS011;11836;51.050;3.716;2023-05-07T14:19:22;0.80;;;0.57;;
23328;SDS011;11836;51.050;3.716;2023-05-07T14:21:49;1.83;;;0.82;;
23328;SDS011;11836;51.050;3.716;2023-05-07T14:24:14;1.38;;;0.80;;
23328;SDS011;11836;51.050;3.716;2023-05-07T14:26:40;1.02;;;0.75;;
23328;SDS011;11836;51.050;3.716;2023-05-07T14:29:24;1.27;;;0.65;;
23328;SDS011;11836;51.050;3.716;2023-05-07T14:34:43;0.75;;;0.55;;
23328;SDS011;11836;51.050;3.716;2023-05-07T14:39:58;2.38;;;0.75;;
23328;SDS011;11836;51.050;3.716;2023-05-07T14:45:33;1.48;;;0.80;;
23328;SDS011;11836;51.050;3.716;2023-05-07T14:47:59;1.23;;;0.70;;
23328;SDS011;11836;51.050;3.716;2023-05-07T14:50:30;1.42;;;0.85;;
23328;SDS011;11836;51.050;3.716;2023-05-07T14:52:56;0.40;;;0.40;;
23328;SDS011;11836;51.050;3.716;2023-05-07T14:55:28;0.65;;;0.60;;
23328;SDS011;11836;51.050;3.716;2023-05-07T14:58:01;2.15;;;0.75;;
23328;SDS011;11836;51.050;3.716;2023-05-07T15:00:27;0.70;;;0.40;;
23328;SDS011;11836;51.050;3.716;2023-05-07T15:02:54;1.25;;;0.55;;
23328;SDS011;11836;51.050;3.716;2023-05-07T15:05:29;1.80;;;0.88;;
23328;SDS011;11836;51.050;3.716;2023-05-07T15:07:58;1.33;;;0.68;;
23328;SDS011;11836;51.050;3.716;2023-05-07T15:10:24;1.17;;;0.93;;
23328;SDS011;11836;51.050;3.716;2023-05-07T15:12:50;1.67;;;0.60;;
23328;SDS011;11836;51.050;3.716;2023-05-07T15:15:20;1.50;;;0.75;;
23328;SDS011;11836;51.050;3.716;2023-05-07T15:17:48;2.22;;;0.65;;
23328;SDS011;11836;51.050;3.716;2023-05-07T15:20:17;0.57;;;0.57;;
23328;SDS011;11836;51.050;3.716;2023-05-07T15:22:55;3.33;;;0.70;;
23328;SDS011;11836;51.050;3.716;2023-05-07T15:25:21;0.63;;;0.60;;
23328;SDS011;11836;51.050;3.716;2023-05-07T15:27:55;1.67;;;0.75;;